Hauptseite
METAR-TAF:

METAR-TAF

Flughäfen :

Lusaka, Sambia

Flughafen Lusaka

Breite: 15-19-51S, Länge: 028-27-09E, Höhe: 1152 m

Beobachtung

Neuester Wetterbericht von vor 49 Minuten, um 23:00 UTC
Wind 2 kt aus Ost/Südost
Temperatur 12°C
Luftfeuchtigkeit 62%
Luftdruck 1017 hPa
Sichtweite 10 km oder mehr
keine Wolken unter 1500 m und keine Kumulonimbus oder Gewitterwolken

METAR: FLKK 162300Z 12002KT CAVOK 12/05 Q1017

Zeit: 01:49 (23:49 UTC)

Prognose

Neuester Wetterbericht von vor 7 Stunden und 49 Minuten, um 16:00 UTC
Gültige Prognose vom 16 um 18 UTC bis 17 um 24 UTC
Wind 5 kt aus Ost, Böen bis zu 15 kt
Sichtweite 10 km oder mehr
keine Wolken unter 1500 m und keine Kumulonimbus oder Gewitterwolken

TAF: FLKK 161600Z 1618/1724 09005G15KT CAVOK

Wetterbeobachtungen und Prognosen von mehr als 4000 Flughäfen (METAR und TAF Bericht).

Die verfügbaren Stationen werden durch gelbe und rote Markierungen auf der Karte dargestellt.

Führen Sie die Maus auf sie, um den Namen der Station zu sehen.

Darauf klicken, um die Beobachtung von Wetterbeobachtungen und Prognosen zu sehen.

Um die Karte zu ändern : klicken Sie auf den grünen Tasten mit einem schwarzen Kreuz Zum Vergrößern, auf den grünen Button mit einem Gedankenstrich zu verkleinern, oder auf die grünen Pfeile für benachbarte Karten.


METAR-TAF: